Limon, Colorado Blizzard (Day One) (9 March 2013)
* *  Mike Umscheid PHOTOGRAPHY & STORM CHASE BLOG   * *


About This Shoot
Date: 9 March 2013
Location: Limon, Colorado
Shoot Type: Winter Weather
Rating:
Synopsis:
Blizzard conditions developing across eastern Colorado. I documented this storm from the Super 8 in Limon, Colorado.

Other Shoots Around This Date
27 Feb
28 Feb
1 Mar
2 Mar

3 Mar
4 Mar
5 Mar
6 Mar
7 Mar
8 Mar

9 Mar

10 Mar
11 Mar

12 Mar
13 Mar

14 Mar
15 Mar
16 Mar
17 Mar

18 Mar

19 Mar

Most Recent Shoots

20 Nov 2017
Early Morning Songbird Shoot (Harris's Sparrow)
Synopsis: My primary objective was to photograph two rare birds that had been observed the day before: Pygmy Nuthatch and Pacific Wren. I was unable t...
19 Nov 2017
Separate Morning (Salt Plains) and Afternoon (Quivira) Bird Shoots
Synopsis: I started off this shoot at sunrise in the observation blind at Salt Plains NWR. The Sandhill Cranes were a bit more distant from the blind ...
18 Nov 2017
Sandhill Crane Late Afternoon Shoot
Synopsis: This was my first ever visit to this refuge, and my emphasis was on Sandhill Cranes which typically roost in a fairly large bay on the north...
17 Nov 2017
Late Afternoon Sparrows
Synopsis: During this late afternoon shoot, I photographed several species of sparrows, including a late Lincoln's Sparrow, White-throated Sparrow, an...
12 Nov 2017
Rock Wren Visits My Backyard!
Synopsis: This was a spontaneous shoot as I noticed an unusual bird flitting around the brush pile in my backyard. Sure enough, it was a Rock Wren whi...

Navigate Other Shoots (by year)
2017
2016
2015
2014
2013
2012
2011
2010
Navigate Other Shoots (by month)
November 2017
October 2017
September 2017
August 2017
July 2017
June 2017
May 2017
April 2017
March 2017
February 2017
January 2017
December 2016
November 2016
October 2016
August 2016
July 2016
June 2016
May 2016
April 2016
March 2016
February 2016
January 2016
November 2015
October 2015
August 2015
July 2015
June 2015
May 2015
April 2015
February 2015
January 2015
December 2014
November 2014
October 2014
September 2014
August 2014
July 2014
June 2014
May 2014
April 2014
March 2014
February 2014
January 2014
December 2013
November 2013
October 2013
September 2013
August 2013
July 2013
June 2013
May 2013
April 2013
March 2013
February 2013
January 2013
December 2012
November 2012
October 2012
September 2012
August 2012
July 2012
June 2012
May 2012
April 2012
March 2012
February 2012
December 2011
October 2011
August 2011
July 2011
June 2011
May 2011
April 2011
June 2010
May 2010
April 2010
February 2010
January 2010

9 March 2013

Limon, Colorado Blizzard (Day One)


Mon, 11 Mar 2013 19:56:02 -0500
METAR Observations at Limon, CO during the March 9 Blizzard





Blizzard event 5-6 hours during the afternoon/early evening hours of March 9th
Ground Blizzard forcing the re-closure of I-70 to Burlington

KLIC 102355Z AUTO 28007G14KT 10SM CLR M02/M08 A3003 RMK AO2 SLP198 T10221083 11006 21044 56004 PWINO FZRANO $
KLIC 102255Z AUTO 35007G21KT 10SM CLR M01/M09 A3003 RMK AO2 SLP196 T10111094 PWINO FZRANO $
KLIC 102155Z AUTO 35008G22KT 10SM CLR M02/M09 A3004 RMK AO2 SLP201 T10171089 PWINO FZRANO $
KLIC 102055Z AUTO 36019G24KT 10SM CLR M02/M09 A3004 RMK AO2 PK WND 36028/1956 SLP205 T10221089 58004 PWINO FZRANO $
KLIC 101955Z AUTO 36018G24KT 10SM CLR M03/M08 A3005 RMK AO2 PK WND 35034/1917 SLP211 T10281083 PWINO FZRANO $
KLIC 101855Z AUTO 36024G34KT 10SM CLR M04/M08 A3006 RMK AO2 PK WND 36034/1852 SLP216 T10391083 PWINO FZRANO $
KLIC 101755Z AUTO 35030G42KT 10SM CLR M04/M08 A3006 RMK AO2 PK WND 36042/1746 SLP213 T10441083 11044 21078 53006 PWINO FZRANO $
KLIC 101709Z AUTO 35026G35KT 3SM HZ CLR M05/M08 A3004 RMK AO2 PK WND 35035/1704 PWINO FZRANO $
KLIC 101655Z AUTO 35025G41KT 1SM HZ CLR M06/M08 A3004 RMK AO2 PK WND 35041/1649 SLP207 T10561083 PWINO FZRANO $
KLIC 101637Z AUTO 35027G36KT 1 1/4SM HZ CLR M06/M09 A3004 RMK AO2 PK WND 34036/1628 PWINO FZRANO $
KLIC 101617Z AUTO 35023G35KT 2 1/2SM HZ CLR M06/M09 A3005 RMK AO2 PK WND 34035/1617 VIS 1 3/4V5 PWINO FZRANO $
KLIC 101555Z AUTO 35027G34KT 1SM HZ CLR M07/M09 A3004 RMK AO2 PK WND 35037/1519 SLP208 T10671094 PWINO FZRANO $
KLIC 101539Z AUTO 35026G34KT 1SM HZ CLR M07/M09 A3005 RMK AO2 PK WND 35037/1519 PWINO FZRANO $
KLIC 101525Z AUTO 35029G37KT 3/4SM HZ CLR M07/M09 A3004 RMK AO2 PK WND 35037/1519 PWINO FZRANO $
KLIC 101455Z AUTO 35020G33KT 1 3/4SM BR CLR M07/M09 A3004 RMK AO2 PK WND 34036/1443 SLP203 T10671089 52003 PWINO FZRANO $
KLIC 101430Z AUTO 35024G34KT 1 3/4SM BR CLR M07/M08 A3004 RMK AO2 PK WND 35034/1429 PWINO FZRANO $

KLIC 101405Z AUTO 34017G25KT 10SM SCT010 M07/M09 A3003 RMK AO2 PWINO FZRANO $
KLIC 101355Z AUTO 34019KT 6SM BR BKN008 M07/M09 A3003 RMK AO2 PK WND 34036/1325 SLP202 T10721089 PWINO FZRANO $
KLIC 101348Z AUTO 34022G31KT 3SM BR BKN008 BKN012 M07/M08 A3004 RMK AO2 PK WND 34036/1325 PWINO FZRANO $
KLIC 101328Z AUTO 34023G36KT 1 1/4SM BR BKN008 OVC013 M06/M07 A3003 RMK AO2 PK WND 34036/1325 PWINO FZRANO $
KLIC 101319Z AUTO 34019G28KT 1 1/2SM BR BKN010 OVC015 M06/M07 A3003 RMK AO2 PK WND 34035/1259 PWINO FZRANO $
KLIC 101255Z AUTO 34022KT 1 1/4SM BR FEW006 BKN015 OVC024 M06/M07 A3003 RMK AO2 PK WND 34035/1229 SLP201 T10611067 PWINO FZRANO $
KLIC 101231Z AUTO 35023G35KT 1SM BR BKN021 BKN026 OVC031 M06/M07 A3003 RMK AO2 PK WND 34035/1229 PWINO FZRANO $
KLIC 101221Z AUTO 34023G35KT 3/4SM BR BKN021 OVC031 M06/M07 A3003 RMK AO2 PK WND 34035/1218 PWINO FZRANO $
KLIC 101202Z AUTO 34022G33KT 1 1/4SM BR BKN029 OVC060 M06/M07 A3003 RMK AO2 PK WND 34033/1200 PWINO FZRANO $
KLIC 101155Z AUTO 34021KT 2SM BR BKN031 BKN043 OVC055 M06/M07 A3003 RMK AO2 PK WND 34033/1107 SLP197 60002 70019 T10561067 11050 21078 53000 PWINO FZRANO $
KLIC 101127Z AUTO 35021G32KT 3SM BR SCT035 BKN055 M06/M07 A3003 RMK AO2 PK WND 34033/1107 PWINO FZRANO $
KLIC 101120Z AUTO 35021G32KT 2 1/2SM BR BKN037 BKN055 M06/M07 A3002 RMK AO2 PK WND 34033/1107 VIS 1 3/4V3 PWINO FZRANO $
KLIC 101106Z AUTO 34021G32KT 1 3/4SM BR SCT030 BKN055 M06/M07 A3002 RMK AO2 PK WND 34032/1104 VIS 1 1/2V2 1/2 PWINO FZRANO $
KLIC 101055Z AUTO 34022G30KT 1 1/2SM BR BKN024 OVC050 M06/M06 A3003 RMK AO2 PK WND 34033/1035 SLP197 P0001 T10561061 PWINO FZRANO $
KLIC 101044Z AUTO 34023G33KT 1SM BR VV020 M05/M06 A3003 RMK AO2 PK WND 34033/1035 P0001 PWINO FZRANO $
KLIC 101018Z AUTO 34017G24KT 1/2SM FZFG BKN011 OVC029 M06/M06 A3001 RMK AO2 P0001 PWINO FZRANO $
KLIC 101011Z AUTO 34016G24KT 1SM BR BKN013 OVC029 M06/M06 A3002 RMK AO2 PWINO FZRANO $
KLIC 101004Z AUTO 34020G24KT 2 1/2SM BR BKN019 OVC029 M06/M07 A3002 RMK AO2 PWINO FZRANO $
KLIC 100955Z AUTO 35015G23KT 1 3/4SM BR OVC019 M06/M07 A3002 RMK AO2 SLP193 P0001 T10611072 PWINO FZRANO $
KLIC 100943Z AUTO 34013G22KT 1 1/2SM BR OVC019 M07/M08 A3002 RMK AO2 P0001 PWINO FZRANO $
KLIC 100928Z AUTO 34013KT 2SM BR OVC023 M07/M08 A3003 RMK AO2 PWINO FZRANO $
KLIC 100918Z AUTO 35012KT 3SM BR OVC029 M07/M09 A3003 RMK AO2 PWINO FZRANO $
KLIC 100855Z AUTO 34013KT 10SM SCT039 OVC049 M07/M10 A3003 RMK AO2 SLP200 T10671100 51018 PWINO FZRANO $
KLIC 100755Z AUTO 34015KT 10SM SCT070 M08/M11 A3002 RMK AO2 SLP198 T10781111 PWINO FZRANO $
KLIC 100655Z AUTO 34019KT 10SM CLR M07/M10 A2999 RMK AO2 PK WND 35028/0608 SLP186 T10721100 400061072 PWINO FZRANO $
KLIC 100555Z AUTO 34021G36KT 8SM BKN037 BKN046 M06/M08 A2996 RMK AO2 PK WND 34037/0519 SLP172 60002 T10561078 11022 21056 51028 PWINO FZRANO $
KLIC 100528Z AUTO 35026G37KT 3SM HZ BKN039 OVC047 M04/M07 A2996 RMK AO2 PK WND 34037/0519 PWINO FZRANO $
KLIC 100455Z AUTO 34029G36KT 2 1/2SM HZ OVC033 M04/M07 A2995 RMK AO2 PK WND 34037/0432 SLP163 T10441072 PWINO FZRANO $
KLIC 100355Z AUTO 34029G37KT 2SM HZ OVC055 M04/M07 A2991 RMK AO2 PK WND 34041/0311 SLP144 T10391067 PWINO FZRANO $
KLIC 100343Z AUTO 34028G39KT 2SM HZ OVC050 M03/M06 A2990 RMK AO2 PK WND 34041/0311 PWINO FZRANO $
KLIC 100336Z AUTO 35031G39KT OVC050 M03/M06 A2990 RMK AO2 PK WND 34041/0311 PWINO FZRANO $
KLIC 100322Z AUTO 34031G38KT 1 3/4SM BR BKN050 OVC070 M03/M06 A2988 RMK AO2 PK WND 34041/0311 PWINO FZRANO
KLIC 100255Z AUTO 34028G36KT 2 1/2SM BR BKN048 OVC070 M03/M05 A2987 RMK AO2 PK WND 34036/0247 SLP127 60002 T10281050 53018 PWINO FZRANO
KLIC 100155Z AUTO 34022G31KT 8SM OVC040 M02/M04 A2983 RMK AO2 PK WND 36042/0126 SLP113 T10221044 PWINO FZRANO
KLIC 100152Z AUTO 35020G35KT 5SM BR OVC038 M02/M04 A2983 RMK AO2 PK WND 36042/0126 PWINO FZRANO
KLIC 100139Z AUTO 36028G37KT 2SM BR OVC030 M03/M04 A2983 RMK AO2 PK WND 36042/0126 PWINO FZRANO
KLIC 100113Z AUTO 35030G39KT 1 3/4SM BR OVC020 M03/M04 A2981 RMK AO2 PK WND 36042/0056 PWINO FZRANO
KLIC 100106Z AUTO 35031G41KT 3/4SM BR VV017 M03/M04 A2981 RMK AO2 PK WND 36042/0056 PWINO FZRANO
KLIC 100055Z AUTO 35032G40KT 1/2SM FZFG VV014 M03/M03 A2980 RMK AO2 PK WND 35044/0019 SLP105 P0002 T10281033 PWINO FZRANO

KLIC 100043Z AUTO 35031G38KT 1/2SM FZFG VV010 M03/M03 A2980 RMK AO2 PK WND 35044/0019 P0002 PWINO FZRANO


KLIC 100023Z AUTO 35033G44KT 1/4SM FZFG VV007 M03/M03 A2978 RMK AO2 PK WND 35044/0019 P0001 PWINO FZRANO


KLIC 092355Z AUTO 35025G33KT 3/4SM BR VV009 M02/M03 A2977 RMK AO2 PK WND 35044/2256 SLP092 P0002 60014 T10221033 11017 21028 51023 PWINO FZRANO $


KLIC 092332Z AUTO 35024G34KT 1/2SM FZFG VV006 M02/M03 A2976 RMK AO2 PK WND 35044/2256 P0002 PWINO FZRANO $


KLIC 092255Z AUTO 35035G44KT 1/4SM FZFG VV008 M03/M03 A2974 RMK AO2 PK WND 36044/2254 SNEMM SLP082 P0002 T10281033 PWINO FZRANO $


KLIC 092230Z AUTO 34024G33KT 1/2SM FZFG VV008 M02/M03 A2973 RMK AO2 PK WND 34037/2158 SNEMM P0001 PWINO FZRANO $


KLIC 092206Z AUTO 35028G37KT 1/4SM +SN FZFG VV008 M02/M03 A2973 RMK AO2 PK WND 34037/2158 P0000


KLIC 092155Z AUTO 34023G30KT 1/2SM SN FZFG VV009 M02/M03 A2972 RMK AO2 PK WND 35041/2058 SLP078 P0002 T10221028


KLIC 092055Z AUTO 35031G44KT 1/4SM +SN FZFG VV007 M03/M03 A2969 RMK AO2 PK WND 35046/2013 SNB23 SLP069 P0003 60008 T10281033 53006 $


KLIC 091955Z AUTO 34028G36KT 1/4SM FZFG VV006 M02/M03 A2966 RMK AO2 PK WND 34036/1955 SNEMM SLP056 P0004 T10221028 PWINO FZRANO $


KLIC 091907Z AUTO 34027G35KT 1/4SM +SN FZFG VV006 M02/M03 A2967 RMK AO2 PK WND 34035/1907 P0001


KLIC 091855Z AUTO 35023G34KT 1/4SM +SN FZFG VV012 M02/M02 A2967 RMK AO2 PK WND 33037/1832 SLP055 P0001 T10171022


KLIC 091853Z AUTO 35021G34KT 1/4SM +SN FZFG FEW010 OVC013 M02/M02 A2967 RMK AO2 PK WND 33037/1832 P0001


KLIC 091852Z AUTO 35024G34KT 1/2SM SN FZFG FEW010 OVC013 M02/M02 A2967 RMK AO2 PK WND 33037/1832 P0001

KLIC 091844Z AUTO 35022G34KT 1 1/4SM -SN BR FEW010 BKN021 OVC026 M01/M02 A2966 RMK AO2 PK WND 33037/1832 P0001
KLIC 091832Z AUTO 34027G37KT 2 1/2SM -SN BR FEW010 BKN021 OVC032 M01/M02 A2966 RMK AO2 PK WND 33037/1832 P0001
KLIC 091822Z AUTO 34023G34KT 1 1/2SM -SN BR FEW010 BKN023 OVC037 M01/M02 A2966 RMK AO2 PK WND 34034/1816 P0000
KLIC 091805Z AUTO 34023G32KT 1/2SM SN FZFG FEW009 BKN017 OVC039 M01/M02 A2965 RMK AO2 PK WND 34032/1805 P0000
KLIC 091755Z AUTO 34020G34KT 1SM -SN BR FEW009 BKN027 OVC038 M01/M02 A2965 RMK AO2 PK WND 34035/1742 SLP047 P0001 60001 T10111022 10006 21011 53010
KLIC 091735Z AUTO 34018G26KT 1SM -SN BR SCT009 BKN027 OVC034 M01/M02 A2964 RMK AO2 PK WND 34031/1724 P0000
KLIC 091723Z AUTO 33022G27KT 3/4SM -SN BR SCT009 BKN020 OVC050 M01/M02 A2964 RMK AO2 PK WND 33027/1718 P0000
KLIC 091702Z AUTO 33021KT 1 3/4SM -SN BR BKN009 BKN040 OVC050 M01/M01 A2963 RMK AO2 PK WND 33026/1657 P0000
KLIC 091655Z AUTO 34021G30KT 2SM -SN BR BKN009 BKN038 OVC050 M01/M02 A2963 RMK AO2 PK WND 34031/1641 SNB18 SLP038 P0000 T10061017
KLIC 091645Z AUTO 34018G31KT 2 1/2SM -SN BR SCT009 BKN013 OVC048 00/M01 A2963 RMK AO2 PK WND 34031/1641 SNB18 P0000
KLIC 091631Z AUTO 34021G27KT 2 1/2SM -SN BR BKN009 OVC015 00/M01 A2963 RMK AO2 PK WND 34027/1630 SNB18 P0000
KLIC 091604Z AUTO 34017G24KT 6SM BR OVC007 00/M01 A2963 RMK AO2 CIG 005V010
KLIC 091555Z AUTO 34018G26KT 6SM BR OVC005 00/M01 A2963 RMK AO2 PK WND 34026/1548 UPB24E54 CIG 004V008 SLP034 P0000 T00001011



Sat, 9 Mar 2013 12:50:08 -0700
Near white-out already I-70 exit 359 Limon, CO
  
(click on thumbnail for pop-up of larger image)